Time;durP1;ratioP1;P1;durP2;ratioP2;P2;SDS_P1;SDS_P2;PMS_P1;PMS_P2;Temp;Humidity;BMP_temperature;BMP_pressure;BME280_temperature;BME280_humidity;BME280_pressure;Samples;Min_cycle;Max_cycle;Signal;HPM_P1;HPM_P2
2023/08/23 00:01:36;;;;;;;;;;;18.30;82.40;;;;;;5014541;28;19981;-86
2023/08/23 00:04:02;;;;;;;;;;;18.30;82.20;;;;;;5003904;28;20311;-87
2023/08/23 00:06:27;;;;;;;;;;;18.30;81.90;;;;;;4990792;28;20375;-90
2023/08/23 00:08:53;;;;;;;;;;;18.30;82.20;;;;;;4993568;28;19910;-87
2023/08/23 00:11:18;;;;;;;;;;;18.30;82.60;;;;;;4994137;28;19909;-87
2023/08/23 00:13:43;;;;;;;;;;;18.30;82.50;;;;;;4992632;28;19914;-87
2023/08/23 00:16:09;;;;;;;;;;;18.30;82.20;;;;;;4989279;28;19913;-87
2023/08/23 00:18:34;;;;;;;;;;;18.30;81.50;;;;;;4993354;28;19921;-87
2023/08/23 00:21:00;;;;;;;;;;;18.30;81.40;;;;;;5008957;28;20371;-87
2023/08/23 00:23:25;;;;;;;;;;;18.10;81.90;;;;;;4993634;28;20280;-87
2023/08/23 00:25:51;;;;;;;;;;;18.10;81.50;;;;;;4993347;28;20012;-87
2023/08/23 00:28:19;;;;;;;;;;;18.10;81.80;;;;;;4990064;28;20056;-87
2023/08/23 00:30:49;;;;;;;;;;;18.10;81.40;;;;;;4992791;28;19916;-87
2023/08/23 00:33:14;;;;;;;;;;;18.10;81.30;;;;;;5002651;28;20376;-86
2023/08/23 00:35:39;;;;;;;;;;;17.90;82.30;;;;;;4988981;28;19926;-87
2023/08/23 00:38:05;;;;;;;;;;;17.90;83.10;;;;;;4992580;28;19913;-87
2023/08/23 00:40:31;;;;;;;;;;;17.80;83.30;;;;;;4994794;28;19910;-87
2023/08/23 00:42:57;;;;;;;;;;;17.80;83.40;;;;;;4993111;28;19969;-87
2023/08/23 00:45:22;;;;;;;;;;;17.90;82.40;;;;;;4994173;28;19961;-86
2023/08/23 00:47:48;;;;;;;;;;;18.00;82.60;;;;;;4991974;28;19918;-87
2023/08/23 00:50:14;;;;;;;;;;;17.90;82.70;;;;;;4992445;28;20372;-87
2023/08/23 00:52:39;;;;;;;;;;;17.80;82.90;;;;;;4991131;28;19914;-87
2023/08/23 00:55:05;;;;;;;;;;;17.90;81.90;;;;;;4992857;28;19989;-87
2023/08/23 00:57:30;;;;;;;;;;;17.90;81.90;;;;;;4990211;28;19913;-87
2023/08/23 00:59:56;;;;;;;;;;;18.00;81.50;;;;;;4993544;28;20020;-87
2023/08/23 01:02:22;;;;;;;;;;;18.00;81.50;;;;;;4990351;28;19921;-87
2023/08/23 01:04:48;;;;;;;;;;;17.90;81.20;;;;;;5009034;28;20410;-88
2023/08/23 01:07:18;;;;;;;;;;;17.80;81.70;;;;;;4990368;28;19924;-87
2023/08/23 01:10:10;;;;;;;;;;;17.80;81.70;;;;;;4991858;28;19925;-87
2023/08/23 01:12:40;;;;;;;;;;;17.80;82.50;;;;;;4978433;28;19968;-87
2023/08/23 01:15:08;;;;;;;;;;;17.70;82.50;;;;;;4993664;28;20637;-87
2023/08/23 01:17:34;;;;;;;;;;;17.80;82.60;;;;;;4992292;28;20442;-87
2023/08/23 01:20:01;;;;;;;;;;;17.70;82.90;;;;;;4991290;28;19964;-87
2023/08/23 01:22:29;;;;;;;;;;;17.70;82.90;;;;;;4995647;28;20380;-87
2023/08/23 01:24:55;;;;;;;;;;;17.70;82.70;;;;;;5032801;28;19928;-86
2023/08/23 01:27:20;;;;;;;;;;;17.70;82.90;;;;;;5012083;28;19909;-86
2023/08/23 01:29:46;;;;;;;;;;;17.70;82.80;;;;;;5017947;28;19914;-86
2023/08/23 01:32:26;;;;;;;;;;;17.70;82.80;;;;;;5004747;28;20013;-87
2023/08/23 01:34:55;;;;;;;;;;;17.70;83.00;;;;;;4990681;28;20298;-86
2023/08/23 01:37:22;;;;;;;;;;;17.70;82.80;;;;;;4993504;28;19941;-87
2023/08/23 01:39:50;;;;;;;;;;;17.60;83.00;;;;;;4990994;28;19957;-87
2023/08/23 01:42:15;;;;;;;;;;;17.70;82.60;;;;;;4991090;28;19960;-87
2023/08/23 01:44:41;;;;;;;;;;;17.80;82.30;;;;;;4983563;28;19914;-86
2023/08/23 01:47:07;;;;;;;;;;;17.80;81.60;;;;;;4992111;28;19918;-87
2023/08/23 01:49:32;;;;;;;;;;;17.70;82.00;;;;;;5008413;28;19910;-87
2023/08/23 01:51:58;;;;;;;;;;;17.60;82.10;;;;;;4990015;28;20001;-87
2023/08/23 01:54:23;;;;;;;;;;;17.60;82.00;;;;;;4987982;28;19921;-87
2023/08/23 01:56:49;;;;;;;;;;;17.60;82.30;;;;;;5006578;28;20299;-87
2023/08/23 01:59:14;;;;;;;;;;;17.50;82.60;;;;;;4990970;28;19925;-87
2023/08/23 02:01:40;;;;;;;;;;;17.50;82.80;;;;;;4990079;28;20287;-87
2023/08/23 02:04:05;;;;;;;;;;;17.40;83.30;;;;;;4993561;28;19914;-87
2023/08/23 02:06:30;;;;;;;;;;;17.40;83.70;;;;;;5005309;28;19955;-87
2023/08/23 02:08:56;;;;;;;;;;;17.50;83.30;;;;;;4995080;28;20016;-87
2023/08/23 02:11:21;;;;;;;;;;;17.50;82.70;;;;;;4993701;28;19909;-87
2023/08/23 02:13:47;;;;;;;;;;;17.60;82.50;;;;;;4998288;28;19913;-87
2023/08/23 02:16:12;;;;;;;;;;;17.50;82.40;;;;;;5031371;28;19917;-86
2023/08/23 02:18:38;;;;;;;;;;;17.50;82.70;;;;;;5001547;28;20282;-87
2023/08/23 02:21:03;;;;;;;;;;;17.40;83.20;;;;;;4992734;28;20283;-87
2023/08/23 02:23:29;;;;;;;;;;;17.40;82.70;;;;;;5001907;23;19934;-83
2023/08/23 02:25:54;;;;;;;;;;;17.30;83.20;;;;;;4987610;28;19922;-82
2023/08/23 02:28:19;;;;;;;;;;;17.40;82.80;;;;;;4991696;28;20369;-82
2023/08/23 02:30:45;;;;;;;;;;;17.40;83.10;;;;;;4976434;28;19918;-82
2023/08/23 02:33:10;;;;;;;;;;;17.30;83.60;;;;;;4971325;28;19915;-81
2023/08/23 02:35:44;;;;;;;;;;;17.40;83.10;;;;;;4974679;28;19953;-83
2023/08/23 02:38:10;;;;;;;;;;;17.40;83.00;;;;;;4969301;28;19989;-83
2023/08/23 02:40:39;;;;;;;;;;;17.50;83.10;;;;;;4976088;28;19915;-83
2023/08/23 02:43:05;;;;;;;;;;;17.40;83.40;;;;;;4976853;28;19949;-82
2023/08/23 02:45:30;;;;;;;;;;;17.40;83.70;;;;;;4974226;28;19917;-80
2023/08/23 02:47:56;;;;;;;;;;;17.40;83.10;;;;;;4975973;28;19918;-82
2023/08/23 02:50:21;;;;;;;;;;;17.30;83.00;;;;;;4975261;28;19914;-83
2023/08/23 02:52:46;;;;;;;;;;;17.30;83.30;;;;;;4976424;28;20040;-81
2023/08/23 02:55:12;;;;;;;;;;;17.20;83.80;;;;;;4976275;28;19916;-82
2023/08/23 02:57:37;;;;;;;;;;;17.30;83.30;;;;;;4975049;28;19914;-83
2023/08/23 03:00:03;;;;;;;;;;;17.20;83.70;;;;;;4976117;28;20309;-82
2023/08/23 03:02:28;;;;;;;;;;;17.30;83.50;;;;;;4974159;28;19981;-82
2023/08/23 03:04:54;;;;;;;;;;;17.30;83.80;;;;;;4977359;28;20381;-82
2023/08/23 03:07:19;;;;;;;;;;;17.30;83.50;;;;;;4974972;28;20366;-82
2023/08/23 03:09:45;;;;;;;;;;;17.30;83.30;;;;;;4974346;28;19914;-82
2023/08/23 03:12:10;;;;;;;;;;;17.40;83.30;;;;;;4973126;28;19918;-81
2023/08/23 03:14:36;;;;;;;;;;;17.40;83.00;;;;;;4976021;28;19914;-83
2023/08/23 03:17:01;;;;;;;;;;;17.40;82.90;;;;;;4974156;28;19929;-82
2023/08/23 03:19:27;;;;;;;;;;;17.40;82.90;;;;;;4976702;28;19914;-82
2023/08/23 03:21:52;;;;;;;;;;;17.40;82.80;;;;;;4980063;28;19914;-81
2023/08/23 03:24:18;;;;;;;;;;;17.40;83.10;;;;;;4986144;28;19928;-82
2023/08/23 03:26:43;;;;;;;;;;;17.30;83.30;;;;;;4989897;28;20068;-82
2023/08/23 03:29:09;;;;;;;;;;;17.20;83.40;;;;;;4987496;28;19949;-82
2023/08/23 03:31:34;;;;;;;;;;;17.30;83.10;;;;;;4989001;28;19919;-82
2023/08/23 03:34:00;;;;;;;;;;;17.30;83.20;;;;;;4990266;28;19970;-82
2023/08/23 03:36:25;;;;;;;;;;;17.30;82.90;;;;;;4987071;28;19934;-83
2023/08/23 03:38:51;;;;;;;;;;;17.10;83.50;;;;;;4976122;28;19953;-82
2023/08/23 03:41:16;;;;;;;;;;;17.10;84.00;;;;;;4975900;28;19953;-83
2023/08/23 03:43:42;;;;;;;;;;;17.10;83.50;;;;;;4979552;28;19917;-82
2023/08/23 03:46:07;;;;;;;;;;;17.10;83.10;;;;;;4977645;28;19922;-82
2023/08/23 03:48:33;;;;;;;;;;;17.10;83.40;;;;;;4973187;28;19922;-83
2023/08/23 03:50:59;;;;;;;;;;;17.00;83.90;;;;;;4979997;28;20528;-83
2023/08/23 03:53:25;;;;;;;;;;;17.00;83.90;;;;;;4975866;28;19911;-83
2023/08/23 03:55:53;;;;;;;;;;;17.00;83.20;;;;;;4977100;28;19930;-82
2023/08/23 03:58:19;;;;;;;;;;;16.90;83.60;;;;;;4969245;28;19950;-82
2023/08/23 04:00:54;;;;;;;;;;;16.90;83.50;;;;;;4975219;28;19921;-82
2023/08/23 04:03:19;;;;;;;;;;;16.80;83.80;;;;;;4975897;28;19921;-82
2023/08/23 04:05:45;;;;;;;;;;;16.80;84.00;;;;;;4974186;28;19985;-82
2023/08/23 04:08:10;;;;;;;;;;;16.70;83.90;;;;;;4974417;28;19914;-82
2023/08/23 04:10:36;;;;;;;;;;;16.70;84.20;;;;;;4975872;28;19969;-82
2023/08/23 04:13:02;;;;;;;;;;;16.80;83.90;;;;;;4965123;28;19925;-80
2023/08/23 04:15:27;;;;;;;;;;;16.80;84.10;;;;;;4971297;28;19953;-82
2023/08/23 04:17:53;;;;;;;;;;;16.80;83.60;;;;;;4975181;28;19985;-82
2023/08/23 04:20:18;;;;;;;;;;;16.80;84.20;;;;;;4977988;28;19981;-82
2023/08/23 04:22:43;;;;;;;;;;;16.80;84.50;;;;;;4974705;28;19921;-82
2023/08/23 04:25:10;;;;;;;;;;;16.80;84.40;;;;;;4975924;28;19914;-82
2023/08/23 04:27:35;;;;;;;;;;;16.80;84.00;;;;;;4974371;28;19925;-81
2023/08/23 04:30:01;;;;;;;;;;;16.90;84.00;;;;;;4976298;28;19918;-82
2023/08/23 04:32:27;;;;;;;;;;;16.80;84.00;;;;;;4976219;28;19956;-82
2023/08/23 04:34:52;;;;;;;;;;;16.80;84.40;;;;;;4973578;28;19945;-82
2023/08/23 04:37:18;;;;;;;;;;;16.80;84.50;;;;;;4979377;28;19910;-81
2023/08/23 04:39:43;;;;;;;;;;;16.90;84.20;;;;;;4972699;28;19945;-83
2023/08/23 04:42:09;;;;;;;;;;;16.90;83.90;;;;;;4983468;28;19914;-83
2023/08/23 04:44:34;;;;;;;;;;;16.90;83.90;;;;;;4969557;28;19946;-81
2023/08/23 04:46:59;;;;;;;;;;;17.00;84.20;;;;;;4974051;28;19921;-82
2023/08/23 04:49:25;;;;;;;;;;;17.00;84.10;;;;;;4967451;28;19944;-85
2023/08/23 04:51:50;;;;;;;;;;;17.00;83.90;;;;;;4967629;28;20366;-87
2023/08/23 04:54:16;;;;;;;;;;;17.00;84.10;;;;;;4974152;28;19982;-86
2023/08/23 04:56:41;;;;;;;;;;;17.00;84.20;;;;;;4966723;28;19953;-83
2023/08/23 04:59:07;;;;;;;;;;;17.00;84.20;;;;;;4968343;28;21703;-84
2023/08/23 05:01:32;;;;;;;;;;;17.00;84.00;;;;;;4969679;28;19921;-84
2023/08/23 05:03:58;;;;;;;;;;;17.00;84.40;;;;;;4966258;28;20307;-81
2023/08/23 05:06:23;;;;;;;;;;;17.00;84.60;;;;;;4963877;28;19918;-82
2023/08/23 05:08:49;;;;;;;;;;;17.10;83.90;;;;;;4969500;28;20381;-84
2023/08/23 05:11:14;;;;;;;;;;;17.10;83.60;;;;;;4959193;28;20289;-84
2023/08/23 05:13:39;;;;;;;;;;;17.10;83.50;;;;;;4962731;28;22207;-83
2023/08/23 05:16:05;;;;;;;;;;;17.20;83.50;;;;;;4962675;28;20000;-83
2023/08/23 05:18:30;;;;;;;;;;;17.10;83.90;;;;;;4968601;28;19918;-84
2023/08/23 05:20:59;;;;;;;;;;;17.10;83.90;;;;;;4965368;28;20644;-81
2023/08/23 05:23:25;;;;;;;;;;;17.10;84.00;;;;;;4969190;28;19918;-84
2023/08/23 05:25:51;;;;;;;;;;;17.10;84.50;;;;;;4968425;28;19918;-85
2023/08/23 05:28:19;;;;;;;;;;;17.10;84.90;;;;;;4955432;28;19914;-85
2023/08/23 05:30:45;;;;;;;;;;;17.10;84.90;;;;;;4963982;28;19925;-87
2023/08/23 05:33:11;;;;;;;;;;;17.20;85.10;;;;;;4962270;28;19914;-85
2023/08/23 05:35:37;;;;;;;;;;;17.20;84.90;;;;;;4967885;28;19993;-85
2023/08/23 05:38:03;;;;;;;;;;;17.30;84.80;;;;;;4968280;28;20354;-85
2023/08/23 05:40:29;;;;;;;;;;;17.20;84.80;;;;;;4969882;28;19958;-86
2023/08/23 05:42:54;;;;;;;;;;;17.40;84.50;;;;;;4972595;28;19922;-84
2023/08/23 05:45:20;;;;;;;;;;;17.50;83.30;;;;;;4970890;28;19918;-85
2023/08/23 05:47:46;;;;;;;;;;;17.50;83.00;;;;;;4965070;28;19922;-84
2023/08/23 05:50:11;;;;;;;;;;;17.50;83.00;;;;;;4969172;28;19960;-85
2023/08/23 05:52:37;;;;;;;;;;;17.50;83.60;;;;;;4976268;28;20397;-89
2023/08/23 05:55:02;;;;;;;;;;;17.50;84.30;;;;;;4968707;28;20009;-83
2023/08/23 05:57:28;;;;;;;;;;;17.60;84.50;;;;;;4980322;28;19915;-86
2023/08/23 05:59:53;;;;;;;;;;;17.70;84.30;;;;;;4965901;28;20411;-85
2023/08/23 06:02:19;;;;;;;;;;;17.80;84.50;;;;;;4963395;28;19929;-86
2023/08/23 06:04:44;;;;;;;;;;;17.90;84.50;;;;;;4965626;28;19922;-85
2023/08/23 06:07:10;;;;;;;;;;;18.00;84.10;;;;;;4968656;28;19968;-86
2023/08/23 06:09:35;;;;;;;;;;;18.10;83.90;;;;;;4972591;28;19910;-85
2023/08/23 06:12:01;;;;;;;;;;;18.10;83.60;;;;;;4974145;28;20583;-86
2023/08/23 06:14:26;;;;;;;;;;;18.10;83.90;;;;;;4972557;28;20468;-86
2023/08/23 06:16:52;;;;;;;;;;;18.10;83.20;;;;;;4971456;28;19918;-86
2023/08/23 06:19:17;;;;;;;;;;;18.10;83.10;;;;;;4972275;28;20337;-85
2023/08/23 06:21:43;;;;;;;;;;;18.20;83.20;;;;;;4964875;28;19919;-85
2023/08/23 06:24:09;;;;;;;;;;;18.30;83.00;;;;;;4968835;28;19965;-85
2023/08/23 06:26:34;;;;;;;;;;;18.40;82.80;;;;;;4968429;28;19918;-85
2023/08/23 06:29:00;;;;;;;;;;;18.50;82.30;;;;;;4968505;28;20214;-86
2023/08/23 06:31:25;;;;;;;;;;;18.70;81.20;;;;;;4972259;28;19914;-85
2023/08/23 06:33:51;;;;;;;;;;;18.60;80.40;;;;;;4967413;28;19918;-85
2023/08/23 06:36:16;;;;;;;;;;;18.70;80.00;;;;;;4971995;28;19918;-86
2023/08/23 06:38:42;;;;;;;;;;;18.70;80.10;;;;;;4969073;28;19914;-85
2023/08/23 06:41:07;;;;;;;;;;;18.80;80.90;;;;;;4973313;28;19937;-86
2023/08/23 06:43:33;;;;;;;;;;;18.80;81.00;;;;;;4977752;28;19910;-85
2023/08/23 06:46:00;;;;;;;;;;;18.80;81.70;;;;;;4976660;28;19914;-85
2023/08/23 06:48:26;;;;;;;;;;;18.70;82.30;;;;;;4978763;28;20013;-85
2023/08/23 06:50:51;;;;;;;;;;;18.70;82.50;;;;;;4978013;28;20474;-85
2023/08/23 06:53:17;;;;;;;;;;;18.70;82.10;;;;;;4981915;28;19918;-84
2023/08/23 06:55:42;;;;;;;;;;;18.70;82.20;;;;;;4978852;28;19921;-84
2023/08/23 06:58:08;;;;;;;;;;;18.70;82.20;;;;;;4970671;28;20654;-85
2023/08/23 07:00:34;;;;;;;;;;;18.70;82.10;;;;;;4968123;28;19961;-85
2023/08/23 07:03:00;;;;;;;;;;;18.70;82.30;;;;;;4973773;28;19920;-85
2023/08/23 07:05:26;;;;;;;;;;;18.70;82.80;;;;;;4973444;28;20013;-85
2023/08/23 07:07:51;;;;;;;;;;;18.70;82.90;;;;;;4972879;28;19918;-84
2023/08/23 07:10:17;;;;;;;;;;;18.70;82.20;;;;;;4970995;28;19918;-88
2023/08/23 07:12:42;;;;;;;;;;;18.80;81.60;;;;;;4979709;28;20300;-87
2023/08/23 07:15:08;;;;;;;;;;;18.80;81.20;;;;;;4986393;28;19918;-87
2023/08/23 07:17:35;;;;;;;;;;;18.90;80.80;;;;;;4968678;28;19922;-87
2023/08/23 07:20:00;;;;;;;;;;;19.00;80.10;;;;;;4971090;28;19921;-87
2023/08/23 07:22:26;;;;;;;;;;;19.00;80.30;;;;;;4968494;28;19919;-83
2023/08/23 07:24:51;;;;;;;;;;;19.00;80.20;;;;;;4971928;28;19969;-83
2023/08/23 07:27:16;;;;;;;;;;;19.20;79.30;;;;;;4974573;28;19922;-83
2023/08/23 07:29:42;;;;;;;;;;;19.30;79.20;;;;;;4978812;28;19922;-83
2023/08/23 07:32:07;;;;;;;;;;;19.30;78.80;;;;;;4973546;28;19918;-83
2023/08/23 07:34:33;;;;;;;;;;;19.40;78.80;;;;;;4972855;28;19964;-84
2023/08/23 07:36:59;;;;;;;;;;;19.40;78.80;;;;;;4975215;28;19976;-85
2023/08/23 07:39:25;;;;;;;;;;;19.50;78.70;;;;;;4975537;28;19915;-80
2023/08/23 07:41:50;;;;;;;;;;;19.60;77.90;;;;;;4975933;28;19922;-85
2023/08/23 07:44:16;;;;;;;;;;;19.70;77.80;;;;;;4971614;28;20016;-83
2023/08/23 07:46:41;;;;;;;;;;;19.80;77.90;;;;;;4970134;28;19922;-82
2023/08/23 07:49:07;;;;;;;;;;;19.90;77.40;;;;;;4968258;28;19953;-82
2023/08/23 07:51:32;;;;;;;;;;;20.00;76.70;;;;;;4971312;28;19914;-84
2023/08/23 07:53:58;;;;;;;;;;;20.10;75.70;;;;;;4966826;28;20429;-83
2023/08/23 07:56:23;;;;;;;;;;;20.10;75.70;;;;;;4970201;28;19914;-81
2023/08/23 07:58:49;;;;;;;;;;;20.20;75.20;;;;;;4962448;28;19924;-81
2023/08/23 08:01:14;;;;;;;;;;;20.30;75.80;;;;;;4973731;28;19946;-81
2023/08/23 08:03:39;;;;;;;;;;;20.30;75.00;;;;;;4972069;28;20005;-82
2023/08/23 08:06:06;;;;;;;;;;;20.50;74.70;;;;;;4971152;28;19941;-81
2023/08/23 08:08:32;;;;;;;;;;;20.60;73.90;;;;;;4971619;28;20580;-81
2023/08/23 08:10:58;;;;;;;;;;;20.80;72.70;;;;;;4971607;28;20014;-82
2023/08/23 08:13:23;;;;;;;;;;;20.80;72.90;;;;;;4969320;28;20010;-84
2023/08/23 08:15:49;;;;;;;;;;;20.80;73.20;;;;;;4971201;28;19957;-86
2023/08/23 08:18:14;;;;;;;;;;;20.90;72.90;;;;;;4967416;28;19914;-84
2023/08/23 08:20:40;;;;;;;;;;;21.10;73.10;;;;;;4969022;28;19914;-84
2023/08/23 08:23:05;;;;;;;;;;;21.10;71.40;;;;;;5025068;23;19933;-88
2023/08/23 08:25:31;;;;;;;;;;;21.10;71.20;;;;;;4980641;28;19925;-88
2023/08/23 08:27:56;;;;;;;;;;;21.20;71.30;;;;;;4990879;28;19922;-88
2023/08/23 08:30:22;;;;;;;;;;;21.20;71.30;;;;;;4987688;28;19921;-88
2023/08/23 08:32:47;;;;;;;;;;;21.30;71.80;;;;;;4991963;28;19980;-89
2023/08/23 08:35:13;;;;;;;;;;;21.30;71.30;;;;;;4989740;28;20376;-88
2023/08/23 08:37:38;;;;;;;;;;;21.40;71.50;;;;;;4983803;28;19914;-88
2023/08/23 08:40:04;;;;;;;;;;;21.40;71.10;;;;;;4987918;28;19952;-88
2023/08/23 08:42:29;;;;;;;;;;;21.50;71.50;;;;;;4994376;28;19913;-88
2023/08/23 08:44:55;;;;;;;;;;;21.50;70.30;;;;;;4986528;28;19917;-89
2023/08/23 08:47:22;;;;;;;;;;;21.40;70.00;;;;;;4990940;28;19918;-89
2023/08/23 08:49:47;;;;;;;;;;;21.50;69.90;;;;;;4992745;28;19918;-89
2023/08/23 08:52:14;;;;;;;;;;;21.60;69.90;;;;;;4989535;28;19914;-88
2023/08/23 08:54:41;;;;;;;;;;;21.70;68.20;;;;;;4987813;28;19914;-88
2023/08/23 08:57:08;;;;;;;;;;;21.80;67.20;;;;;;4991340;28;20097;-88
2023/08/23 08:59:34;;;;;;;;;;;21.80;66.90;;;;;;5011142;28;19906;-90
2023/08/23 09:02:00;;;;;;;;;;;21.80;67.70;;;;;;5010778;28;19941;-88
2023/08/23 09:04:25;;;;;;;;;;;21.90;67.80;;;;;;4994573;28;19919;-89
2023/08/23 09:06:52;;;;;;;;;;;22.10;67.10;;;;;;4991545;28;19925;-89
2023/08/23 09:09:18;;;;;;;;;;;22.10;65.50;;;;;;4989788;28;19918;-88
2023/08/23 09:11:44;;;;;;;;;;;22.20;65.00;;;;;;4987237;28;19915;-89
2023/08/23 09:14:17;;;;;;;;;;;22.30;65.10;;;;;;4989841;28;19940;-88
2023/08/23 09:16:43;;;;;;;;;;;22.30;64.60;;;;;;4990154;28;19918;-88
2023/08/23 09:19:10;;;;;;;;;;;22.30;64.80;;;;;;4984622;28;19968;-88
2023/08/23 09:21:35;;;;;;;;;;;22.50;63.90;;;;;;4984807;28;19910;-89
2023/08/23 09:24:08;;;;;;;;;;;22.40;64.50;;;;;;5005053;28;19917;-89
2023/08/23 09:26:34;;;;;;;;;;;22.50;64.80;;;;;;5016312;28;19937;-89
2023/08/23 09:29:01;;;;;;;;;;;22.60;64.60;;;;;;5001913;28;19914;-88
2023/08/23 09:31:27;;;;;;;;;;;22.80;64.30;;;;;;4991699;28;19925;-88
2023/08/23 09:33:53;;;;;;;;;;;22.80;63.70;;;;;;4994210;28;20303;-89
2023/08/23 09:36:39;;;;;;;;;;;;;;;;;;;;;
2023/08/23 09:39:25;;;;;;;;;;;23.00;63.80;;;;;;4984261;28;20531;-89
2023/08/23 09:41:51;;;;;;;;;;;23.00;64.10;;;;;;4991494;28;19921;-90
2023/08/23 09:44:18;;;;;;;;;;;23.10;63.30;;;;;;4990559;28;19918;-87
2023/08/23 09:46:45;;;;;;;;;;;23.00;63.50;;;;;;4992471;28;19972;-86
2023/08/23 09:49:12;;;;;;;;;;;23.00;64.00;;;;;;4992670;28;20004;-86
2023/08/23 09:51:38;;;;;;;;;;;23.10;64.50;;;;;;4993975;28;19953;-84
2023/08/23 09:54:11;;;;;;;;;;;23.20;63.50;;;;;;4998655;28;20439;-85
2023/08/23 09:56:37;;;;;;;;;;;23.30;62.90;;;;;;4994763;28;20636;-86
2023/08/23 09:59:03;;;;;;;;;;;23.30;63.90;;;;;;4992315;28;19914;-86
2023/08/23 10:01:28;;;;;;;;;;;23.30;63.70;;;;;;4992318;28;20114;-86
2023/08/23 10:03:54;;;;;;;;;;;23.40;63.80;;;;;;4992954;28;20396;-87
2023/08/23 10:06:21;;;;;;;;;;;23.50;64.30;;;;;;4992400;28;20433;-86
2023/08/23 10:08:46;;;;;;;;;;;23.60;63.50;;;;;;4993961;28;20600;-85
2023/08/23 10:11:13;;;;;;;;;;;23.60;62.80;;;;;;4990861;28;19914;-86
2023/08/23 10:13:39;;;;;;;;;;;23.70;62.80;;;;;;4985080;28;19914;-90
2023/08/23 10:16:08;;;;;;;;;;;23.70;62.90;;;;;;4985885;28;20307;-85
2023/08/23 10:18:34;;;;;;;;;;;23.80;63.50;;;;;;4981201;28;20344;-87
2023/08/23 10:21:01;;;;;;;;;;;23.80;63.60;;;;;;4988777;28;19921;-86
2023/08/23 10:23:26;;;;;;;;;;;23.90;63.30;;;;;;4988335;28;19945;-87
2023/08/23 10:25:52;;;;;;;;;;;23.90;63.20;;;;;;4987074;28;19965;-87
2023/08/23 10:28:18;;;;;;;;;;;24.00;62.90;;;;;;4990211;28;19913;-89
2023/08/23 10:30:45;;;;;;;;;;;24.10;61.90;;;;;;4987596;28;19915;-87
2023/08/23 10:33:12;;;;;;;;;;;24.20;61.60;;;;;;4985781;28;19914;-87
2023/08/23 10:35:39;;;;;;;;;;;24.10;61.80;;;;;;4981172;28;20362;-86
2023/08/23 10:38:05;;;;;;;;;;;24.10;62.20;;;;;;4989826;28;19918;-86
2023/08/23 10:40:31;;;;;;;;;;;24.10;61.40;;;;;;4991291;28;19914;-85
2023/08/23 10:42:57;;;;;;;;;;;24.10;61.90;;;;;;4992340;28;19914;-85
2023/08/23 10:45:23;;;;;;;;;;;24.30;60.10;;;;;;4990410;28;20011;-86
2023/08/23 10:47:49;;;;;;;;;;;24.30;59.70;;;;;;4990857;28;20390;-85
2023/08/23 10:50:15;;;;;;;;;;;24.10;60.10;;;;;;4986460;28;19914;-86
2023/08/23 10:52:40;;;;;;;;;;;24.10;60.60;;;;;;4992737;28;19968;-85
2023/08/23 10:55:06;;;;;;;;;;;24.10;61.10;;;;;;5016767;28;19910;-86
2023/08/23 10:57:31;;;;;;;;;;;24.20;61.90;;;;;;5020667;28;19929;-87
2023/08/23 10:59:57;;;;;;;;;;;24.40;59.70;;;;;;5010145;28;21273;-84
2023/08/23 11:02:22;;;;;;;;;;;24.30;60.50;;;;;;4991827;28;19937;-85
2023/08/23 11:04:48;;;;;;;;;;;24.30;60.60;;;;;;4990319;28;19918;-86
2023/08/23 11:07:14;;;;;;;;;;;24.30;61.00;;;;;;4997289;28;19918;-86
2023/08/23 11:09:40;;;;;;;;;;;24.50;60.00;;;;;;5000048;28;19917;-86
2023/08/23 11:12:06;;;;;;;;;;;24.70;59.20;;;;;;5000216;28;20272;-86
2023/08/23 11:14:32;;;;;;;;;;;24.80;58.00;;;;;;5012801;28;19921;-86
2023/08/23 11:16:57;;;;;;;;;;;24.80;58.80;;;;;;5011132;28;19926;-85
2023/08/23 11:19:23;;;;;;;;;;;24.80;58.30;;;;;;4995882;28;19913;-86
2023/08/23 11:21:48;;;;;;;;;;;24.60;59.20;;;;;;4990867;28;19914;-86
2023/08/23 11:24:13;;;;;;;;;;;24.60;59.50;;;;;;4984814;28;19917;-87
2023/08/23 11:26:39;;;;;;;;;;;24.50;60.10;;;;;;4986227;28;19924;-86
2023/08/23 11:29:05;;;;;;;;;;;24.50;60.10;;;;;;4986040;28;20291;-86
2023/08/23 11:31:34;;;;;;;;;;;24.60;59.20;;;;;;4988010;28;19956;-86
2023/08/23 11:34:04;;;;;;;;;;;24.60;58.60;;;;;;4989190;28;20559;-86
2023/08/23 11:36:30;;;;;;;;;;;24.60;59.50;;;;;;4994627;28;19913;-88
2023/08/23 11:38:59;;;;;;;;;;;24.50;58.80;;;;;;4993045;28;20399;-87
2023/08/23 11:41:28;;;;;;;;;;;24.50;59.60;;;;;;4991114;28;19914;-85
2023/08/23 11:43:54;;;;;;;;;;;24.60;58.30;;;;;;4985748;28;20447;-86
2023/08/23 11:46:20;;;;;;;;;;;24.60;58.20;;;;;;4988234;28;20045;-85
2023/08/23 11:48:45;;;;;;;;;;;24.50;59.00;;;;;;4987784;28;19914;-86
2023/08/23 11:51:11;;;;;;;;;;;24.50;59.60;;;;;;4987935;28;19941;-81
2023/08/23 11:53:36;;;;;;;;;;;24.50;58.30;;;;;;4988267;28;20025;-85
2023/08/23 11:56:05;;;;;;;;;;;24.50;58.80;;;;;;4989276;28;19965;-86
2023/08/23 11:58:31;;;;;;;;;;;24.60;57.50;;;;;;4991871;28;19942;-87
2023/08/23 12:00:56;;;;;;;;;;;24.50;58.00;;;;;;4992564;28;19921;-87
2023/08/23 12:03:22;;;;;;;;;;;24.60;57.70;;;;;;4989340;28;19913;-87
2023/08/23 12:05:47;;;;;;;;;;;24.60;57.20;;;;;;4986953;28;19914;-87
2023/08/23 12:08:13;;;;;;;;;;;24.60;57.10;;;;;;4990272;28;19917;-87
2023/08/23 12:10:39;;;;;;;;;;;24.60;56.40;;;;;;4990885;28;19914;-87
2023/08/23 12:13:04;;;;;;;;;;;24.70;56.60;;;;;;4986505;28;19921;-88
2023/08/23 12:15:31;;;;;;;;;;;24.80;57.70;;;;;;4987296;28;20017;-88
2023/08/23 12:17:57;;;;;;;;;;;24.90;57.60;;;;;;4982667;28;20695;-86
2023/08/23 12:20:23;;;;;;;;;;;24.90;58.60;;;;;;4983994;28;19964;-87
2023/08/23 12:22:50;;;;;;;;;;;25.00;56.60;;;;;;4984983;28;19926;-87
2023/08/23 12:25:15;;;;;;;;;;;25.00;56.80;;;;;;4986077;28;19913;-87
2023/08/23 12:27:41;;;;;;;;;;;25.00;57.50;;;;;;4984818;28;20075;-87
2023/08/23 12:30:09;;;;;;;;;;;25.10;56.80;;;;;;4983781;28;20305;-87
2023/08/23 12:32:34;;;;;;;;;;;25.20;55.50;;;;;;4989319;28;19920;-85
2023/08/23 12:35:01;;;;;;;;;;;25.20;56.90;;;;;;4986774;28;20391;-86
2023/08/23 12:37:26;;;;;;;;;;;25.30;55.50;;;;;;4988301;28;20372;-87
2023/08/23 12:39:52;;;;;;;;;;;25.50;53.90;;;;;;4986169;28;19914;-87
2023/08/23 12:42:17;;;;;;;;;;;25.60;52.00;;;;;;4990275;28;19924;-88
2023/08/23 12:44:45;;;;;;;;;;;25.70;53.40;;;;;;4988624;28;19921;-88
2023/08/23 12:47:38;;;;;;;;;;;25.80;52.40;;;;;;4984339;28;22105;-88
2023/08/23 12:50:04;;;;;;;;;;;25.80;51.80;;;;;;4989629;28;20336;-88
2023/08/23 12:52:30;;;;;;;;;;;25.80;51.80;;;;;;4991866;28;19928;-88
2023/08/23 12:54:55;;;;;;;;;;;25.70;52.80;;;;;;4989492;28;19920;-88
2023/08/23 12:57:21;;;;;;;;;;;25.70;52.00;;;;;;4991063;28;19920;-88
2023/08/23 12:59:46;;;;;;;;;;;25.70;50.90;;;;;;4991896;28;19922;-89
2023/08/23 13:02:12;;;;;;;;;;;25.70;50.30;;;;;;4986515;28;19983;-88
2023/08/23 13:04:37;;;;;;;;;;;25.80;50.20;;;;;;4991734;28;20006;-87
2023/08/23 13:07:03;;;;;;;;;;;25.70;49.40;;;;;;4988009;28;19922;-86
2023/08/23 13:09:28;;;;;;;;;;;25.70;50.60;;;;;;4990346;28;20007;-86
2023/08/23 13:11:54;;;;;;;;;;;25.60;51.10;;;;;;4993004;28;19914;-88
2023/08/23 13:14:19;;;;;;;;;;;25.60;51.10;;;;;;5012643;28;19953;-86
2023/08/23 13:16:45;;;;;;;;;;;25.70;51.20;;;;;;5018978;28;20077;-88
2023/08/23 13:19:10;;;;;;;;;;;25.70;49.20;;;;;;5016501;28;19941;-88
2023/08/23 13:21:36;;;;;;;;;;;25.70;51.60;;;;;;5000454;28;19918;-86
2023/08/23 13:24:01;;;;;;;;;;;25.80;50.20;;;;;;4994894;28;19945;-87
2023/08/23 13:26:27;;;;;;;;;;;25.80;51.10;;;;;;4993189;28;19977;-88
2023/08/23 13:28:52;;;;;;;;;;;25.70;51.50;;;;;;5016370;28;19902;-89
2023/08/23 13:31:18;;;;;;;;;;;25.80;49.30;;;;;;5007095;28;19918;-87
2023/08/23 13:33:46;;;;;;;;;;;25.90;48.70;;;;;;4995594;28;20053;-89
2023/08/23 13:36:15;;;;;;;;;;;25.90;49.30;;;;;;4995392;28;19910;-88
2023/08/23 13:38:41;;;;;;;;;;;26.10;47.00;;;;;;4982085;28;19920;-87
2023/08/23 13:41:06;;;;;;;;;;;26.20;47.10;;;;;;4999085;28;19993;-88
2023/08/23 13:43:32;;;;;;;;;;;26.20;47.00;;;;;;4994294;28;20394;-87
2023/08/23 13:45:58;;;;;;;;;;;26.30;47.00;;;;;;4991403;28;20477;-87
2023/08/23 13:48:23;;;;;;;;;;;26.40;48.10;;;;;;4990981;28;19924;-87
2023/08/23 13:50:49;;;;;;;;;;;26.40;48.10;;;;;;4992665;28;20351;-87
2023/08/23 13:53:14;;;;;;;;;;;26.30;48.60;;;;;;4992851;28;19921;-87
2023/08/23 13:55:40;;;;;;;;;;;26.20;48.00;;;;;;4988233;28;19910;-87
2023/08/23 13:58:05;;;;;;;;;;;26.10;47.30;;;;;;4992628;28;19957;-86
2023/08/23 14:00:30;;;;;;;;;;;26.30;47.20;;;;;;4995105;28;19913;-88
2023/08/23 14:02:56;;;;;;;;;;;26.20;47.00;;;;;;4996111;28;19910;-87
2023/08/23 14:05:21;;;;;;;;;;;26.10;47.70;;;;;;5016365;28;19903;-87
2023/08/23 14:07:47;;;;;;;;;;;26.00;47.40;;;;;;5009486;28;19918;-87
2023/08/23 14:10:13;;;;;;;;;;;26.00;49.30;;;;;;4990338;28;19929;-87
2023/08/23 14:12:38;;;;;;;;;;;26.00;48.10;;;;;;4982382;28;20550;-87